Woodstock, New Hampshire
Current Conditions -  °F | °C
As of 5:52 AM on Saturday 25 Oct 2014 (Local Time) from KHIE Reporting Station
Moderate Fog Moderate Fog  
Wind Chill: 33°   Ceiling: 100
Heat Index: 33°   Visibility: 0.25mi
Dew Point: 32°   Wind: 0mph
Humidity: 96%   Direction: NA
Pressure: 29.75"   Gusts: NA
Location:  44.3°N, 71.5°W
Report Text: KHIE 250952Z AUTO 00000KT 1/4SM FG VV001 01/00 A2975 RMK AO2 SLP084 T00060000
Loading
Personal Weather Stations






























Interactive Weather Map
Tropical Storm Tracking
New forecast layout! Learn more

10-Day Weather Forecast

Advertisements
Track Severe Weather on mobile